sensor_id;sensor_type;location;lat;lon;timestamp;temperature;humidity
48589;DHT22;34369;51.174;6.738;2022-11-18T00:04:28;9.40;90.70
48589;DHT22;34369;51.174;6.738;2022-11-18T00:09:33;9.40;90.70
48589;DHT22;34369;51.174;6.738;2022-11-18T00:17:27;9.40;90.70
48589;DHT22;34369;51.174;6.738;2022-11-18T00:20:01;9.40;90.70
48589;DHT22;34369;51.174;6.738;2022-11-18T00:22:33;9.50;90.90
48589;DHT22;34369;51.174;6.738;2022-11-18T00:25:06;9.50;90.80
48589;DHT22;34369;51.174;6.738;2022-11-18T00:27:38;9.50;90.80
48589;DHT22;34369;51.174;6.738;2022-11-18T00:30:11;9.50;90.60
48589;DHT22;34369;51.174;6.738;2022-11-18T00:35:17;9.60;90.60
48589;DHT22;34369;51.174;6.738;2022-11-18T00:40:21;9.50;90.60
48589;DHT22;34369;51.174;6.738;2022-11-18T00:50:31;9.50;90.40
48589;DHT22;34369;51.174;6.738;2022-11-18T00:55:35;9.60;90.50
48589;DHT22;34369;51.174;6.738;2022-11-18T00:58:07;9.50;90.50
48589;DHT22;34369;51.174;6.738;2022-11-18T01:00:40;9.50;90.40
48589;DHT22;34369;51.174;6.738;2022-11-18T01:03:12;9.50;90.50
48589;DHT22;34369;51.174;6.738;2022-11-18T01:05:47;9.60;90.50
48589;DHT22;34369;51.174;6.738;2022-11-18T01:10:52;9.50;90.50
48589;DHT22;34369;51.174;6.738;2022-11-18T01:13:24;9.50;90.50
48589;DHT22;34369;51.174;6.738;2022-11-18T01:15:58;9.50;90.40
48589;DHT22;34369;51.174;6.738;2022-11-18T01:21:04;9.60;90.30
48589;DHT22;34369;51.174;6.738;2022-11-18T01:26:10;9.50;90.20
48589;DHT22;34369;51.174;6.738;2022-11-18T01:31:18;9.50;90.10
48589;DHT22;34369;51.174;6.738;2022-11-18T01:36:25;9.50;90.10
48589;DHT22;34369;51.174;6.738;2022-11-18T01:44:04;9.40;90.10
48589;DHT22;34369;51.174;6.738;2022-11-18T01:46:57;9.20;90.20
48589;DHT22;34369;51.174;6.738;2022-11-18T01:49:29;9.40;90.30
48589;DHT22;34369;51.174;6.738;2022-11-18T01:52:02;9.30;90.10
48589;DHT22;34369;51.174;6.738;2022-11-18T01:54:38;9.40;90.30
48589;DHT22;34369;51.174;6.738;2022-11-18T01:57:12;9.40;90.60
48589;DHT22;34369;51.174;6.738;2022-11-18T01:59:49;9.30;90.00
48589;DHT22;34369;51.174;6.738;2022-11-18T02:02:24;10.30;90.60
48589;DHT22;34369;51.174;6.738;2022-11-18T02:04:57;9.30;90.00
48589;DHT22;34369;51.174;6.738;2022-11-18T02:07:33;9.30;90.10
48589;DHT22;34369;51.174;6.738;2022-11-18T02:10:07;9.30;90.20
48589;DHT22;34369;51.174;6.738;2022-11-18T02:17:52;9.10;90.30
48589;DHT22;34369;51.174;6.738;2022-11-18T02:20:30;9.20;90.40
48589;DHT22;34369;51.174;6.738;2022-11-18T02:23:53;9.20;90.50
48589;DHT22;34369;51.174;6.738;2022-11-18T02:30:02;9.20;90.40
48589;DHT22;34369;51.174;6.738;2022-11-18T02:32:40;9.20;90.60
48589;DHT22;34369;51.174;6.738;2022-11-18T02:35:18;9.10;90.60
48589;DHT22;34369;51.174;6.738;2022-11-18T02:37:56;9.10;90.40
48589;DHT22;34369;51.174;6.738;2022-11-18T02:40:33;9.10;90.50
48589;DHT22;34369;51.174;6.738;2022-11-18T02:43:10;9.10;90.70
48589;DHT22;34369;51.174;6.738;2022-11-18T02:45:51;9.10;90.50
48589;DHT22;34369;51.174;6.738;2022-11-18T02:48:27;9.10;90.60
48589;DHT22;34369;51.174;6.738;2022-11-18T02:51:03;9.90;90.90
48589;DHT22;34369;51.174;6.738;2022-11-18T02:53:37;9.00;90.60
48589;DHT22;34369;51.174;6.738;2022-11-18T02:56:12;9.00;90.70
48589;DHT22;34369;51.174;6.738;2022-11-18T02:58:45;9.00;90.70
48589;DHT22;34369;51.174;6.738;2022-11-18T03:01:22;9.10;90.80
48589;DHT22;34369;51.174;6.738;2022-11-18T03:06:32;9.10;90.90
48589;DHT22;34369;51.174;6.738;2022-11-18T03:09:10;9.00;90.90
48589;DHT22;34369;51.174;6.738;2022-11-18T03:11:50;9.10;90.90
48589;DHT22;34369;51.174;6.738;2022-11-18T03:14:33;10.70;91.50
48589;DHT22;34369;51.174;6.738;2022-11-18T03:17:13;9.10;90.90
48589;DHT22;34369;51.174;6.738;2022-11-18T03:20:00;9.00;90.90
48589;DHT22;34369;51.174;6.738;2022-11-18T03:22:39;9.00;90.90
48589;DHT22;34369;51.174;6.738;2022-11-18T03:25:18;9.10;91.00
48589;DHT22;34369;51.174;6.738;2022-11-18T03:27:57;9.10;91.00
48589;DHT22;34369;51.174;6.738;2022-11-18T03:30:35;9.10;91.00
48589;DHT22;34369;51.174;6.738;2022-11-18T03:33:14;9.20;91.20
48589;DHT22;34369;51.174;6.738;2022-11-18T03:35:50;9.10;91.10
48589;DHT22;34369;51.174;6.738;2022-11-18T03:38:28;9.20;91.30
48589;DHT22;34369;51.174;6.738;2022-11-18T03:41:03;9.20;91.30
48589;DHT22;34369;51.174;6.738;2022-11-18T03:43:40;9.10;91.40
48589;DHT22;34369;51.174;6.738;2022-11-18T03:46:17;9.10;91.30
48589;DHT22;34369;51.174;6.738;2022-11-18T03:48:53;9.10;91.30
48589;DHT22;34369;51.174;6.738;2022-11-18T03:51:30;9.20;91.30
48589;DHT22;34369;51.174;6.738;2022-11-18T03:54:10;9.20;91.30
48589;DHT22;34369;51.174;6.738;2022-11-18T03:56:48;9.20;91.30
48589;DHT22;34369;51.174;6.738;2022-11-18T03:59:26;9.30;91.20
48589;DHT22;34369;51.174;6.738;2022-11-18T04:02:07;9.30;91.30
48589;DHT22;34369;51.174;6.738;2022-11-18T04:04:44;9.30;91.20
48589;DHT22;34369;51.174;6.738;2022-11-18T04:07:23;9.30;91.30
48589;DHT22;34369;51.174;6.738;2022-11-18T04:10:01;9.30;91.20
48589;DHT22;34369;51.174;6.738;2022-11-18T04:12:41;9.30;91.10
48589;DHT22;34369;51.174;6.738;2022-11-18T04:15:16;9.30;91.40
48589;DHT22;34369;51.174;6.738;2022-11-18T04:17:48;9.30;91.10
48589;DHT22;34369;51.174;6.738;2022-11-18T04:20:22;9.40;91.20
48589;DHT22;34369;51.174;6.738;2022-11-18T04:22:54;9.30;91.10
48589;DHT22;34369;51.174;6.738;2022-11-18T04:27:58;9.30;91.10
48589;DHT22;34369;51.174;6.738;2022-11-18T04:30:31;9.40;91.30
48589;DHT22;34369;51.174;6.738;2022-11-18T04:35:36;9.40;91.20
48589;DHT22;34369;51.174;6.738;2022-11-18T04:38:08;9.50;91.20
48589;DHT22;34369;51.174;6.738;2022-11-18T04:45:45;9.50;91.10
48589;DHT22;34369;51.174;6.738;2022-11-18T04:48:17;9.40;91.00
48589;DHT22;34369;51.174;6.738;2022-11-18T04:50:50;9.40;91.00
48589;DHT22;34369;51.174;6.738;2022-11-18T04:53:22;9.50;90.90
48589;DHT22;34369;51.174;6.738;2022-11-18T04:55:54;9.50;90.90
48589;DHT22;34369;51.174;6.738;2022-11-18T05:00:59;9.40;91.00
48589;DHT22;34369;51.174;6.738;2022-11-18T05:03:31;9.40;91.00
48589;DHT22;34369;51.174;6.738;2022-11-18T05:06:04;9.40;90.80
48589;DHT22;34369;51.174;6.738;2022-11-18T05:08:37;9.40;90.80
48589;DHT22;34369;51.174;6.738;2022-11-18T05:21:39;9.20;91.00
48589;DHT22;34369;51.174;6.738;2022-11-18T05:26:44;9.20;91.10
48589;DHT22;34369;51.174;6.738;2022-11-18T05:29:16;9.20;91.20
48589;DHT22;34369;51.174;6.738;2022-11-18T05:34:22;9.20;91.30
48589;DHT22;34369;51.174;6.738;2022-11-18T05:36:55;9.20;91.20
48589;DHT22;34369;51.174;6.738;2022-11-18T05:39:28;9.10;91.40
48589;DHT22;34369;51.174;6.738;2022-11-18T05:42:00;9.10;91.30
48589;DHT22;34369;51.174;6.738;2022-11-18T05:44:49;9.00;91.40
48589;DHT22;34369;51.174;6.738;2022-11-18T05:47:22;9.10;91.50
48589;DHT22;34369;51.174;6.738;2022-11-18T05:49:54;9.00;91.40
48589;DHT22;34369;51.174;6.738;2022-11-18T05:52:28;9.00;91.60
48589;DHT22;34369;51.174;6.738;2022-11-18T05:57:32;9.10;91.70
48589;DHT22;34369;51.174;6.738;2022-11-18T06:00:05;9.00;91.50
48589;DHT22;34369;51.174;6.738;2022-11-18T06:02:40;9.00;91.70
48589;DHT22;34369;51.174;6.738;2022-11-18T06:07:48;8.90;91.50
48589;DHT22;34369;51.174;6.738;2022-11-18T06:10:22;8.90;91.60
48589;DHT22;34369;51.174;6.738;2022-11-18T06:12:58;8.90;91.70
48589;DHT22;34369;51.174;6.738;2022-11-18T06:15:37;8.90;91.70
48589;DHT22;34369;51.174;6.738;2022-11-18T06:18:16;8.90;91.70
48589;DHT22;34369;51.174;6.738;2022-11-18T06:20:55;8.90;91.70
48589;DHT22;34369;51.174;6.738;2022-11-18T06:23:34;8.90;91.80
48589;DHT22;34369;51.174;6.738;2022-11-18T06:28:42;8.90;91.80
48589;DHT22;34369;51.174;6.738;2022-11-18T06:38:54;8.90;91.80
48589;DHT22;34369;51.174;6.738;2022-11-18T06:41:30;8.90;92.00
48589;DHT22;34369;51.174;6.738;2022-11-18T06:46:37;8.70;91.80
48589;DHT22;34369;51.174;6.738;2022-11-18T06:52:01;12.90;92.80
48589;DHT22;34369;51.174;6.738;2022-11-18T06:54:36;8.90;91.80
48589;DHT22;34369;51.174;6.738;2022-11-18T07:07:24;8.90;92.10
48589;DHT22;34369;51.174;6.738;2022-11-18T07:09:58;8.90;92.10
48589;DHT22;34369;51.174;6.738;2022-11-18T07:15:04;8.90;92.10
48589;DHT22;34369;51.174;6.738;2022-11-18T07:20:15;8.90;92.10
48589;DHT22;34369;51.174;6.738;2022-11-18T07:22:51;8.90;92.10
48589;DHT22;34369;51.174;6.738;2022-11-18T07:25:26;8.90;92.00
48589;DHT22;34369;51.174;6.738;2022-11-18T07:27:58;8.90;92.00
48589;DHT22;34369;51.174;6.738;2022-11-18T07:40:43;8.90;92.00
48589;DHT22;34369;51.174;6.738;2022-11-18T07:56:03;9.00;92.20
48589;DHT22;34369;51.174;6.738;2022-11-18T07:58:36;9.00;92.10
48589;DHT22;34369;51.174;6.738;2022-11-18T08:01:13;9.00;92.10
48589;DHT22;34369;51.174;6.738;2022-11-18T08:11:26;9.10;92.10
48589;DHT22;34369;51.174;6.738;2022-11-18T08:24:09;9.20;92.00
48589;DHT22;34369;51.174;6.738;2022-11-18T08:26:42;9.20;91.90
48589;DHT22;34369;51.174;6.738;2022-11-18T08:29:17;9.20;92.00
48589;DHT22;34369;51.174;6.738;2022-11-18T08:36:54;7.20;91.40
48589;DHT22;34369;51.174;6.738;2022-11-18T08:42:01;9.40;92.10
48589;DHT22;34369;51.174;6.738;2022-11-18T08:57:20;10.90;92.30
48589;DHT22;34369;51.174;6.738;2022-11-18T09:10:05;10.10;91.50
48589;DHT22;34369;51.174;6.738;2022-11-18T09:12:39;10.10;91.30
48589;DHT22;34369;51.174;6.738;2022-11-18T09:20:17;10.30;91.10
48589;DHT22;34369;51.174;6.738;2022-11-18T09:27:58;10.40;90.80
48589;DHT22;34369;51.174;6.738;2022-11-18T09:35:41;10.50;90.40
48589;DHT22;34369;51.174;6.738;2022-11-18T09:40:54;10.60;90.10
48589;DHT22;34369;51.174;6.738;2022-11-18T09:43:40;10.60;90.10
48589;DHT22;34369;51.174;6.738;2022-11-18T09:46:23;10.60;89.60
48589;DHT22;34369;51.174;6.738;2022-11-18T09:49:02;10.60;89.00
48589;DHT22;34369;51.174;6.738;2022-11-18T09:51:48;10.70;89.10
48589;DHT22;34369;51.174;6.738;2022-11-18T09:54:22;10.80;89.00
48589;DHT22;34369;51.174;6.738;2022-11-18T09:56:56;10.70;88.80
48589;DHT22;34369;51.174;6.738;2022-11-18T09:59:31;10.70;88.50
48589;DHT22;34369;51.174;6.738;2022-11-18T10:02:28;10.70;88.50
48589;DHT22;34369;51.174;6.738;2022-11-18T10:05:13;10.80;88.60
48589;DHT22;34369;51.174;6.738;2022-11-18T10:08:04;10.90;88.80
48589;DHT22;34369;51.174;6.738;2022-11-18T10:10:55;11.00;88.40
48589;DHT22;34369;51.174;6.738;2022-11-18T10:13:39;11.10;88.20
48589;DHT22;34369;51.174;6.738;2022-11-18T10:16:30;11.10;87.70
48589;DHT22;34369;51.174;6.738;2022-11-18T10:19:16;11.30;86.80
48589;DHT22;34369;51.174;6.738;2022-11-18T10:22:18;11.30;85.90
48589;DHT22;34369;51.174;6.738;2022-11-18T10:24:54;11.30;85.70
48589;DHT22;34369;51.174;6.738;2022-11-18T10:27:33;11.40;85.60
48589;DHT22;34369;51.174;6.738;2022-11-18T10:30:12;11.60;85.60
48589;DHT22;34369;51.174;6.738;2022-11-18T10:32:57;11.30;85.20
48589;DHT22;34369;51.174;6.738;2022-11-18T10:35:33;11.30;85.10
48589;DHT22;34369;51.174;6.738;2022-11-18T10:38:16;11.30;85.20
48589;DHT22;34369;51.174;6.738;2022-11-18T10:41:00;11.40;85.40
48589;DHT22;34369;51.174;6.738;2022-11-18T10:43:45;11.50;85.20
48589;DHT22;34369;51.174;6.738;2022-11-18T10:46:24;11.70;85.10
48589;DHT22;34369;51.174;6.738;2022-11-18T10:49:23;11.80;84.70
48589;DHT22;34369;51.174;6.738;2022-11-18T10:52:08;11.80;84.80
48589;DHT22;34369;51.174;6.738;2022-11-18T10:54:41;12.00;84.50
48589;DHT22;34369;51.174;6.738;2022-11-18T10:57:17;12.10;84.00
48589;DHT22;34369;51.174;6.738;2022-11-18T10:59:54;12.30;84.30
48589;DHT22;34369;51.174;6.738;2022-11-18T11:02:30;12.40;83.70
48589;DHT22;34369;51.174;6.738;2022-11-18T11:05:16;12.50;82.60
48589;DHT22;34369;51.174;6.738;2022-11-18T11:08:01;12.30;82.00
48589;DHT22;34369;51.174;6.738;2022-11-18T11:10:34;12.50;81.00
48589;DHT22;34369;51.174;6.738;2022-11-18T11:13:12;12.50;81.70
48589;DHT22;34369;51.174;6.738;2022-11-18T11:15:47;12.60;80.10
48589;DHT22;34369;51.174;6.738;2022-11-18T11:18:24;12.60;79.50
48589;DHT22;34369;51.174;6.738;2022-11-18T11:21:17;12.60;79.70
48589;DHT22;34369;51.174;6.738;2022-11-18T11:23:50;12.60;80.10
48589;DHT22;34369;51.174;6.738;2022-11-18T11:26:31;12.70;79.80
48589;DHT22;34369;51.174;6.738;2022-11-18T11:29:14;12.70;79.60
48589;DHT22;34369;51.174;6.738;2022-11-18T11:32:00;12.70;79.50
48589;DHT22;34369;51.174;6.738;2022-11-18T11:34:41;12.80;79.20
48589;DHT22;34369;51.174;6.738;2022-11-18T11:37:29;12.80;79.50
48589;DHT22;34369;51.174;6.738;2022-11-18T11:40:19;12.80;79.40
48589;DHT22;34369;51.174;6.738;2022-11-18T11:43:07;12.80;79.10
48589;DHT22;34369;51.174;6.738;2022-11-18T11:45:58;12.80;78.40
48589;DHT22;34369;51.174;6.738;2022-11-18T11:48:50;12.80;78.50
48589;DHT22;34369;51.174;6.738;2022-11-18T11:51:31;12.90;78.20
48589;DHT22;34369;51.174;6.738;2022-11-18T11:54:27;12.90;78.20
48589;DHT22;34369;51.174;6.738;2022-11-18T11:57:11;12.80;78.10
48589;DHT22;34369;51.174;6.738;2022-11-18T11:59:51;12.80;78.10
48589;DHT22;34369;51.174;6.738;2022-11-18T12:02:40;12.80;78.30
48589;DHT22;34369;51.174;6.738;2022-11-18T12:05:23;12.80;77.90
48589;DHT22;34369;51.174;6.738;2022-11-18T12:08:02;12.70;77.30
48589;DHT22;34369;51.174;6.738;2022-11-18T12:10:45;12.70;77.50
48589;DHT22;34369;51.174;6.738;2022-11-18T12:13:32;12.70;77.20
48589;DHT22;34369;51.174;6.738;2022-11-18T12:16:20;12.60;77.10
48589;DHT22;34369;51.174;6.738;2022-11-18T12:18:58;12.40;77.10
48589;DHT22;34369;51.174;6.738;2022-11-18T12:21:53;12.40;77.20
48589;DHT22;34369;51.174;6.738;2022-11-18T12:24:34;12.20;76.60
48589;DHT22;34369;51.174;6.738;2022-11-18T12:27:57;12.10;76.80
48589;DHT22;34369;51.174;6.738;2022-11-18T12:35:30;11.80;76.60
48589;DHT22;34369;51.174;6.738;2022-11-18T12:38:03;11.70;76.70
48589;DHT22;34369;51.174;6.738;2022-11-18T12:40:42;11.70;76.90
48589;DHT22;34369;51.174;6.738;2022-11-18T12:46:50;11.40;77.10
48589;DHT22;34369;51.174;6.738;2022-11-18T12:52:51;11.30;77.60
48589;DHT22;34369;51.174;6.738;2022-11-18T12:55:30;11.20;77.70
48589;DHT22;34369;51.174;6.738;2022-11-18T12:58:20;11.20;77.90
48589;DHT22;34369;51.174;6.738;2022-11-18T13:01:06;11.10;78.10
48589;DHT22;34369;51.174;6.738;2022-11-18T13:03:38;11.10;78.30
48589;DHT22;34369;51.174;6.738;2022-11-18T13:06:23;11.10;78.80
48589;DHT22;34369;51.174;6.738;2022-11-18T13:08:59;10.90;78.60
48589;DHT22;34369;51.174;6.738;2022-11-18T13:11:39;11.00;78.60
48589;DHT22;34369;51.174;6.738;2022-11-18T13:14:17;10.80;78.70
48589;DHT22;34369;51.174;6.738;2022-11-18T13:17:28;10.90;79.00
48589;DHT22;34369;51.174;6.738;2022-11-18T13:20:24;10.80;79.20
48589;DHT22;34369;51.174;6.738;2022-11-18T13:23:02;10.70;79.40
48589;DHT22;34369;51.174;6.738;2022-11-18T13:26:10;10.70;79.50
48589;DHT22;34369;51.174;6.738;2022-11-18T13:28:54;10.70;79.70
48589;DHT22;34369;51.174;6.738;2022-11-18T13:31:50;10.70;79.80
48589;DHT22;34369;51.174;6.738;2022-11-18T13:34:31;10.60;80.00
48589;DHT22;34369;51.174;6.738;2022-11-18T13:37:19;10.60;80.10
48589;DHT22;34369;51.174;6.738;2022-11-18T13:39:53;10.50;80.10
48589;DHT22;34369;51.174;6.738;2022-11-18T13:42:27;10.70;80.40
48589;DHT22;34369;51.174;6.738;2022-11-18T13:45:01;10.50;80.40
48589;DHT22;34369;51.174;6.738;2022-11-18T13:47:35;10.50;80.50
48589;DHT22;34369;51.174;6.738;2022-11-18T13:50:17;10.40;80.50
48589;DHT22;34369;51.174;6.738;2022-11-18T13:52:59;10.50;80.80
48589;DHT22;34369;51.174;6.738;2022-11-18T13:55:39;10.30;80.90
48589;DHT22;34369;51.174;6.738;2022-11-18T13:58:32;10.40;81.10
48589;DHT22;34369;51.174;6.738;2022-11-18T14:01:13;10.30;81.30
48589;DHT22;34369;51.174;6.738;2022-11-18T14:03:49;10.40;81.40
48589;DHT22;34369;51.174;6.738;2022-11-18T14:06:28;10.30;81.60
48589;DHT22;34369;51.174;6.738;2022-11-18T14:09:06;11.20;82.20
48589;DHT22;34369;51.174;6.738;2022-11-18T14:11:58;10.40;82.00
48589;DHT22;34369;51.174;6.738;2022-11-18T14:14:33;10.40;82.30
48589;DHT22;34369;51.174;6.738;2022-11-18T14:17:16;11.30;82.90
48589;DHT22;34369;51.174;6.738;2022-11-18T14:19:52;10.30;82.70
48589;DHT22;34369;51.174;6.738;2022-11-18T14:22:29;10.40;82.90
48589;DHT22;34369;51.174;6.738;2022-11-18T14:25:14;10.40;83.20
48589;DHT22;34369;51.174;6.738;2022-11-18T14:27:50;10.40;82.80
48589;DHT22;34369;51.174;6.738;2022-11-18T14:30:35;10.40;82.80
48589;DHT22;34369;51.174;6.738;2022-11-18T14:33:13;10.40;82.90
48589;DHT22;34369;51.174;6.738;2022-11-18T14:35:49;10.50;82.70
48589;DHT22;34369;51.174;6.738;2022-11-18T14:38:28;10.50;82.90
48589;DHT22;34369;51.174;6.738;2022-11-18T14:41:09;10.40;83.00
48589;DHT22;34369;51.174;6.738;2022-11-18T14:46:17;10.50;83.00
48589;DHT22;34369;51.174;6.738;2022-11-18T14:48:51;10.60;83.20
48589;DHT22;34369;51.174;6.738;2022-11-18T14:54:00;10.50;83.40
48589;DHT22;34369;51.174;6.738;2022-11-18T14:56:33;10.50;83.80
48589;DHT22;34369;51.174;6.738;2022-11-18T15:01:41;10.40;83.00
48589;DHT22;34369;51.174;6.738;2022-11-18T15:06:47;10.40;83.30
48589;DHT22;34369;51.174;6.738;2022-11-18T15:09:21;10.30;83.00
48589;DHT22;34369;51.174;6.738;2022-11-18T15:11:54;10.70;83.90
48589;DHT22;34369;51.174;6.738;2022-11-18T15:14:26;10.20;82.90
48589;DHT22;34369;51.174;6.738;2022-11-18T15:16:58;10.20;83.00
48589;DHT22;34369;51.174;6.738;2022-11-18T15:19:30;10.00;83.00
48589;DHT22;34369;51.174;6.738;2022-11-18T15:24:36;10.00;82.80
48589;DHT22;34369;51.174;6.738;2022-11-18T15:27:08;10.00;83.10
48589;DHT22;34369;51.174;6.738;2022-11-18T15:39:55;9.60;83.30
48589;DHT22;34369;51.174;6.738;2022-11-18T15:50:05;9.30;83.60
48589;DHT22;34369;51.174;6.738;2022-11-18T15:55:13;9.00;83.90
48589;DHT22;34369;51.174;6.738;2022-11-18T16:00:18;8.90;84.20
48589;DHT22;34369;51.174;6.738;2022-11-18T16:10:30;8.70;84.40
48589;DHT22;34369;51.174;6.738;2022-11-18T16:13:20;8.60;84.60
48589;DHT22;34369;51.174;6.738;2022-11-18T16:26:04;8.40;86.00
48589;DHT22;34369;51.174;6.738;2022-11-18T16:34:03;8.40;87.30
48589;DHT22;34369;51.174;6.738;2022-11-18T16:36:37;8.50;88.10
48589;DHT22;34369;51.174;6.738;2022-11-18T16:39:11;8.50;88.10
48589;DHT22;34369;51.174;6.738;2022-11-18T16:41:46;8.40;87.90
48589;DHT22;34369;51.174;6.738;2022-11-18T16:46:52;8.40;88.80
48589;DHT22;34369;51.174;6.738;2022-11-18T16:49:26;8.40;88.90
48589;DHT22;34369;51.174;6.738;2022-11-18T16:54:32;8.40;89.30
48589;DHT22;34369;51.174;6.738;2022-11-18T16:57:06;8.40;89.60
48589;DHT22;34369;51.174;6.738;2022-11-18T17:02:13;8.50;89.90
48589;DHT22;34369;51.174;6.738;2022-11-18T17:09:50;8.40;90.20
48589;DHT22;34369;51.174;6.738;2022-11-18T17:12:23;8.50;90.20
48589;DHT22;34369;51.174;6.738;2022-11-18T17:14:55;12.90;91.50
48589;DHT22;34369;51.174;6.738;2022-11-18T17:17:29;8.50;90.30
48589;DHT22;34369;51.174;6.738;2022-11-18T17:22:34;8.40;90.20
48589;DHT22;34369;51.174;6.738;2022-11-18T17:25:06;8.40;90.20
48589;DHT22;34369;51.174;6.738;2022-11-18T17:27:40;8.40;90.00
48589;DHT22;34369;51.174;6.738;2022-11-18T17:30:13;8.40;90.30
48589;DHT22;34369;51.174;6.738;2022-11-18T17:32:47;8.30;90.20
48589;DHT22;34369;51.174;6.738;2022-11-18T17:37:52;8.30;90.20
48589;DHT22;34369;51.174;6.738;2022-11-18T17:42:59;8.30;90.40
48589;DHT22;34369;51.174;6.738;2022-11-18T17:45:31;8.20;90.20
48589;DHT22;34369;51.174;6.738;2022-11-18T17:48:03;8.20;90.20
48589;DHT22;34369;51.174;6.738;2022-11-18T17:50:36;8.10;90.20
48589;DHT22;34369;51.174;6.738;2022-11-18T17:53:08;8.10;90.30
48589;DHT22;34369;51.174;6.738;2022-11-18T17:58:15;8.10;90.40
48589;DHT22;34369;51.174;6.738;2022-11-18T18:06:00;8.20;90.60
48589;DHT22;34369;51.174;6.738;2022-11-18T18:11:09;8.00;90.90
48589;DHT22;34369;51.174;6.738;2022-11-18T18:13:44;8.10;91.00
48589;DHT22;34369;51.174;6.738;2022-11-18T18:16:33;8.10;91.40
48589;DHT22;34369;51.174;6.738;2022-11-18T18:19:06;8.10;91.70
48589;DHT22;34369;51.174;6.738;2022-11-18T18:21:38;8.20;91.50
48589;DHT22;34369;51.174;6.738;2022-11-18T18:24:11;8.30;91.50
48589;DHT22;34369;51.174;6.738;2022-11-18T18:26:44;8.30;91.60
48589;DHT22;34369;51.174;6.738;2022-11-18T18:29:18;8.30;91.90
48589;DHT22;34369;51.174;6.738;2022-11-18T18:34:22;8.30;91.70
48589;DHT22;34369;51.174;6.738;2022-11-18T18:44:34;8.50;91.90
48589;DHT22;34369;51.174;6.738;2022-11-18T18:47:20;8.60;91.80
48589;DHT22;34369;51.174;6.738;2022-11-18T18:52:25;8.50;91.90
48589;DHT22;34369;51.174;6.738;2022-11-18T18:54:57;8.50;91.90
48589;DHT22;34369;51.174;6.738;2022-11-18T18:57:29;8.60;91.80
48589;DHT22;34369;51.174;6.738;2022-11-18T19:00:03;8.60;91.80
48589;DHT22;34369;51.174;6.738;2022-11-18T19:02:36;8.70;91.90
48589;DHT22;34369;51.174;6.738;2022-11-18T19:05:08;8.70;91.90
48589;DHT22;34369;51.174;6.738;2022-11-18T19:07:40;8.70;91.70
48589;DHT22;34369;51.174;6.738;2022-11-18T19:12:46;8.60;91.80
48589;DHT22;34369;51.174;6.738;2022-11-18T19:15:23;8.70;91.60
48589;DHT22;34369;51.174;6.738;2022-11-18T19:30:46;8.70;91.60
48589;DHT22;34369;51.174;6.738;2022-11-18T19:33:18;8.70;91.80
48589;DHT22;34369;51.174;6.738;2022-11-18T19:35:52;8.80;91.60
48589;DHT22;34369;51.174;6.738;2022-11-18T19:40:57;8.70;91.70
48589;DHT22;34369;51.174;6.738;2022-11-18T19:43:30;8.70;91.70
48589;DHT22;34369;51.174;6.738;2022-11-18T19:46:04;8.70;91.60
48589;DHT22;34369;51.174;6.738;2022-11-18T19:51:11;8.70;91.60
48589;DHT22;34369;51.174;6.738;2022-11-18T19:56:18;8.70;91.60
48589;DHT22;34369;51.174;6.738;2022-11-18T20:01:28;8.70;91.60
48589;DHT22;34369;51.174;6.738;2022-11-18T20:06:35;8.70;91.80
48589;DHT22;34369;51.174;6.738;2022-11-18T20:09:08;8.70;91.80
48589;DHT22;34369;51.174;6.738;2022-11-18T20:11:42;8.80;91.80
48589;DHT22;34369;51.174;6.738;2022-11-18T20:14:15;8.80;91.90
48589;DHT22;34369;51.174;6.738;2022-11-18T20:16:48;8.80;91.70
48589;DHT22;34369;51.174;6.738;2022-11-18T20:19:22;8.80;91.80
48589;DHT22;34369;51.174;6.738;2022-11-18T20:24:28;8.80;91.70
48589;DHT22;34369;51.174;6.738;2022-11-18T20:27:00;8.80;91.80
48589;DHT22;34369;51.174;6.738;2022-11-18T20:32:06;8.80;91.60
48589;DHT22;34369;51.174;6.738;2022-11-18T20:37:10;8.70;91.70
48589;DHT22;34369;51.174;6.738;2022-11-18T20:39:44;8.80;91.70
48589;DHT22;34369;51.174;6.738;2022-11-18T20:42:16;8.80;91.60
48589;DHT22;34369;51.174;6.738;2022-11-18T20:45:07;8.80;91.70
48589;DHT22;34369;51.174;6.738;2022-11-18T20:47:41;8.80;91.80
48589;DHT22;34369;51.174;6.738;2022-11-18T20:50:14;8.80;91.90
48589;DHT22;34369;51.174;6.738;2022-11-18T20:52:49;8.80;91.70
48589;DHT22;34369;51.174;6.738;2022-11-18T20:55:21;8.80;91.70
48589;DHT22;34369;51.174;6.738;2022-11-18T21:03:00;8.80;91.80
48589;DHT22;34369;51.174;6.738;2022-11-18T21:05:33;8.80;91.60
48589;DHT22;34369;51.174;6.738;2022-11-18T21:16:17;8.90;91.70
48589;DHT22;34369;51.174;6.738;2022-11-18T21:18:52;8.80;91.90
48589;DHT22;34369;51.174;6.738;2022-11-18T21:21:26;8.90;91.90
48589;DHT22;34369;51.174;6.738;2022-11-18T21:24:19;8.80;91.70
48589;DHT22;34369;51.174;6.738;2022-11-18T21:26:54;8.80;91.70
48589;DHT22;34369;51.174;6.738;2022-11-18T21:29:28;8.90;91.90
48589;DHT22;34369;51.174;6.738;2022-11-18T21:32:01;8.80;91.90
48589;DHT22;34369;51.174;6.738;2022-11-18T21:34:35;8.90;92.00
48589;DHT22;34369;51.174;6.738;2022-11-18T21:37:08;8.90;92.20
48589;DHT22;34369;51.174;6.738;2022-11-18T21:44:45;8.90;92.20
48589;DHT22;34369;51.174;6.738;2022-11-18T21:47:18;8.80;92.20
48589;DHT22;34369;51.174;6.738;2022-11-18T21:49:52;8.80;92.00
48589;DHT22;34369;51.174;6.738;2022-11-18T21:54:58;8.90;91.90
48589;DHT22;34369;51.174;6.738;2022-11-18T21:57:31;8.80;92.20
48589;DHT22;34369;51.174;6.738;2022-11-18T22:00:05;8.80;92.10
48589;DHT22;34369;51.174;6.738;2022-11-18T22:02:41;8.80;92.10
48589;DHT22;34369;51.174;6.738;2022-11-18T22:20:39;8.70;92.00
48589;DHT22;34369;51.174;6.738;2022-11-18T22:28:17;12.70;93.10
48589;DHT22;34369;51.174;6.738;2022-11-18T22:30:50;8.70;92.00
48589;DHT22;34369;51.174;6.738;2022-11-18T22:36:17;8.70;92.00
48589;DHT22;34369;51.174;6.738;2022-11-18T22:38:52;8.70;92.10
48589;DHT22;34369;51.174;6.738;2022-11-18T22:41:26;8.70;92.20
48589;DHT22;34369;51.174;6.738;2022-11-18T22:44:16;8.70;92.20
48589;DHT22;34369;51.174;6.738;2022-11-18T22:46:51;8.70;92.10
48589;DHT22;34369;51.174;6.738;2022-11-18T22:49:31;8.70;92.30
48589;DHT22;34369;51.174;6.738;2022-11-18T22:57:16;8.70;92.40
48589;DHT22;34369;51.174;6.738;2022-11-18T22:59:49;8.70;92.20
48589;DHT22;34369;51.174;6.738;2022-11-18T23:04:55;8.70;92.40
48589;DHT22;34369;51.174;6.738;2022-11-18T23:07:29;8.80;92.40
48589;DHT22;34369;51.174;6.738;2022-11-18T23:10:02;8.80;92.30
48589;DHT22;34369;51.174;6.738;2022-11-18T23:12:35;8.70;92.40
48589;DHT22;34369;51.174;6.738;2022-11-18T23:15:25;8.80;92.40
48589;DHT22;34369;51.174;6.738;2022-11-18T23:17:58;8.80;92.40
48589;DHT22;34369;51.174;6.738;2022-11-18T23:20:30;8.80;92.40
48589;DHT22;34369;51.174;6.738;2022-11-18T23:23:04;8.80;92.50
48589;DHT22;34369;51.174;6.738;2022-11-18T23:25:37;8.80;92.40
48589;DHT22;34369;51.174;6.738;2022-11-18T23:28:10;8.80;92.40
48589;DHT22;34369;51.174;6.738;2022-11-18T23:30:43;8.80;92.50
48589;DHT22;34369;51.174;6.738;2022-11-18T23:33:15;8.80;92.60